Time;durP1;ratioP1;P1;durP2;ratioP2;P2;SDS_P1;SDS_P2;PMS_P1;PMS_P2;Temp;Humidity;BMP_temperature;BMP_pressure;BME280_temperature;BME280_humidity;BME280_pressure;Samples;Min_cycle;Max_cycle;Signal;HPM_P1;HPM_P2
2023/02/21 02:16:23;;;;;;;7.20;3.70;;;;;;;1.73;97.12;98870.80;107414;1259;72642;-96
2023/02/21 02:19:11;;;;;;;5.50;4.80;;;;;;;1.77;97.22;98864.95;107347;1259;59905;-95
2023/02/21 02:22:20;;;;;;;6.20;5.50;;;;;;;1.80;97.02;98860.10;107488;1259;60542;-94
2023/02/21 02:25:16;;;;;;;5.70;4.00;;;;;;;1.82;96.90;98852.09;107788;1259;74257;-94
2023/02/21 02:27:51;;;;;;;4.90;4.40;;;;;;;1.81;96.94;98848.19;108828;1259;63031;-95
2023/02/21 02:30:52;;;;;;;4.60;3.90;;;;;;;1.85;97.07;98843.67;107927;1258;72656;-94
2023/02/21 02:33:45;;;;;;;4.80;4.00;;;;;;;1.88;96.99;98829.58;109073;1259;61147;-94
2023/02/21 02:36:40;;;;;;;5.80;4.90;;;;;;;1.87;96.88;98835.65;109239;1259;60380;-93
2023/02/21 02:39:25;;;;;;;5.20;4.40;;;;;;;1.91;97.12;98832.31;108556;1259;74410;-95
2023/02/21 02:42:33;;;;;;;4.10;3.50;;;;;;;1.95;97.09;98825.91;107586;1259;63884;-93
2023/02/21 02:45:42;;;;;;;7.00;4.50;;;;;;;1.96;97.01;98826.02;107538;1258;73908;-95
2023/02/21 02:48:22;;;;;;;4.40;3.80;;;;;;;2.02;96.94;98821.40;108389;1263;61572;-95
2023/02/21 02:50:52;;;;;;;5.80;4.30;;;;;;;2.07;96.97;98817.67;108056;1259;60242;-94
2023/02/21 02:53:26;;;;;;;10.50;5.00;;;;;;;2.12;96.94;98822.59;108330;1258;73754;-91
2023/02/21 02:56:01;;;;;;;5.60;3.80;;;;;;;2.15;96.81;98818.64;108171;1266;64479;-93
2023/02/21 02:58:37;;;;;;;5.80;4.10;;;;;;;2.21;96.76;98824.00;107733;1260;73272;-95
2023/02/21 03:01:16;;;;;;;4.60;3.40;;;;;;;2.23;96.54;98820.27;108118;1259;62283;-89
2023/02/21 03:03:58;;;;;;;9.70;5.60;;;;;;;2.24;96.52;98814.01;108551;1258;61294;-92
2023/02/21 03:07:08;;;;;;;5.60;4.10;;;;;;;2.28;96.60;98809.33;108714;1259;74072;-93
2023/02/21 03:10:18;;;;;;;7.30;6.00;;;;;;;2.32;96.60;98811.13;109183;1259;63792;-92
2023/02/21 03:12:52;;;;;;;7.00;4.70;;;;;;;2.37;96.54;98811.73;107723;1264;72641;-93
2023/02/21 03:15:52;;;;;;;5.50;4.10;;;;;;;2.41;96.39;98816.35;107655;1258;61225;-94
2023/02/21 03:18:42;;;;;;;5.20;4.40;;;;;;;2.46;96.49;98807.98;107950;1259;61157;-94
2023/02/21 03:21:19;;;;;;;5.90;4.00;;;;;;;2.49;96.27;98807.77;107773;1259;74723;-93
2023/02/21 03:23:56;;;;;;;3.50;3.20;;;;;;;2.52;96.20;98795.73;108284;1259;63881;-93
2023/02/21 03:26:26;;;;;;;4.50;4.10;;;;;;;2.53;95.86;98779.97;108918;1258;71567;-93
2023/02/21 03:29:15;;;;;;;5.10;3.70;;;;;;;2.50;95.64;98792.91;107875;1264;62354;-93
2023/02/21 03:31:53;;;;;;;3.90;3.50;;;;;;;2.51;95.75;98811.33;107464;1259;60493;-93
2023/02/21 03:34:23;;;;;;;5.20;4.30;;;;;;;2.54;95.72;98800.80;107212;1259;74698;-93
2023/02/21 03:36:52;;;;;;;5.10;3.90;;;;;;;2.57;95.78;98783.54;107525;1258;63827;-93
2023/02/21 03:39:21;;;;;;;4.20;3.50;;;;;;;2.61;95.75;98776.73;107598;1259;71811;-93
2023/02/21 03:41:49;;;;;;;6.50;3.80;;;;;;;2.63;95.68;98783.38;109112;1258;62128;-92
2023/02/21 03:44:25;;;;;;;3.90;3.50;;;;;;;2.66;95.55;98780.45;108965;1259;61753;-92
2023/02/21 03:46:54;;;;;;;4.60;2.90;;;;;;;2.69;95.60;98774.02;107270;1259;73750;-92
2023/02/21 03:49:22;;;;;;;3.70;3.20;;;;;;;2.73;95.57;98774.89;107582;1259;63700;-91
2023/02/21 03:51:50;;;;;;;3.70;3.40;;;;;;;2.76;95.43;98771.92;108613;1258;71637;-93
2023/02/21 03:54:17;;;;;;;4.90;3.80;;;;;;;2.78;95.42;98765.05;107584;1259;61333;-92
2023/02/21 03:56:49;;;;;;;4.10;3.50;;;;;;;2.82;95.46;98767.42;107846;1258;60164;-92
2023/02/21 04:00:18;;;;;;;4.90;3.80;;;;;;;2.88;95.38;98767.91;106553;1286;612239;-92
2023/02/21 04:02:49;;;;;;;5.40;4.50;;;;;;;2.91;95.21;98760.35;108187;1266;61116;-92
2023/02/21 04:05:34;;;;;;;3.80;2.70;;;;;;;2.96;95.12;98754.74;108340;1260;60374;-94
2023/02/21 04:08:12;;;;;;;5.60;3.10;;;;;;;2.97;95.17;98744.46;108194;1260;71090;-93
2023/02/21 04:10:41;;;;;;;5.80;3.40;;;;;;;3.02;94.93;98752.65;109008;1259;63858;-94
2023/02/21 04:13:22;;;;;;;4.40;2.70;;;;;;;3.05;94.97;98738.44;108779;1253;788724;-94
2023/02/21 04:15:57;;;;;;;5.20;3.00;;;;;;;3.09;94.74;98736.67;109592;1254;60027;-95
2023/02/21 04:18:25;;;;;;;5.30;3.40;;;;;;;3.16;94.79;98742.65;108966;1253;60212;-92
2023/02/21 04:20:57;;;;;;;4.10;3.20;;;;;;;3.22;94.61;98754.02;109240;1254;72736;-93
2023/02/21 04:23:24;;;;;;;6.60;3.40;;;;;;;3.27;94.50;98741.98;109015;1254;63592;-91
2023/02/21 04:25:52;;;;;;;4.90;3.50;;;;;;;3.31;94.26;98734.83;109085;1254;72755;-91
2023/02/21 04:28:26;;;;;;;6.00;3.10;;;;;;;3.35;94.02;98731.67;107610;1259;61075;-91
2023/02/21 04:30:54;;;;;;;4.20;3.00;;;;;;;3.37;93.88;98737.45;107595;1257;60131;-92
2023/02/21 04:33:23;;;;;;;5.20;2.90;;;;;;;3.39;93.75;98737.15;108486;1253;72783;-92
2023/02/21 04:35:50;;;;;;;4.20;3.50;;;;;;;3.41;93.59;98745.14;108985;1251;64027;-92
2023/02/21 04:38:38;;;;;;;4.20;2.90;;;;;;;3.45;93.41;98753.86;107823;1251;73904;-93
2023/02/21 04:41:06;;;;;;;4.90;3.50;;;;;;;3.49;93.36;98747.42;107922;1251;62154;-92
2023/02/21 04:43:37;;;;;;;4.40;3.20;;;;;;;3.51;93.14;98749.67;107978;1254;59610;-92
2023/02/21 04:46:05;;;;;;;5.20;3.20;;;;;;;3.55;92.90;98752.08;107563;1251;72750;-95
2023/02/21 04:48:33;;;;;;;3.50;3.10;;;;;;;3.57;93.13;98746.38;107542;1252;64142;-93
2023/02/21 04:51:01;;;;;;;6.70;3.10;;;;;;;3.61;92.89;98758.27;107691;1253;74392;-91
2023/02/21 04:53:47;;;;;;;4.00;3.50;;;;;;;3.63;92.68;98758.33;107558;1251;61875;-91
2023/02/21 04:56:18;;;;;;;3.60;3.00;;;;;;;3.65;92.87;98761.59;107855;1253;60093;-90
2023/02/21 04:58:46;;;;;;;3.80;3.40;;;;;;;3.69;92.74;98758.58;107636;1254;72893;-91
2023/02/21 05:01:15;;;;;;;5.40;3.30;;;;;;;3.72;92.87;98762.24;107746;1253;63558;-93
2023/02/21 05:03:44;;;;;;;7.80;4.40;;;;;;;3.77;92.94;98757.77;108471;1251;72662;-93
2023/02/21 05:06:23;;;;;;;5.30;3.10;;;;;;;3.81;92.84;98752.52;108137;1253;62765;-91
2023/02/21 05:08:51;;;;;;;4.30;3.50;;;;;;;3.87;92.86;98755.09;108629;1251;60152;-94
2023/02/21 05:11:20;;;;;;;6.40;3.60;;;;;;;3.92;92.85;98749.75;108022;1251;74048;-92
2023/02/21 05:13:50;;;;;;;6.60;3.80;;;;;;;3.98;92.85;98747.30;108180;1251;65374;-93
2023/02/21 05:16:20;;;;;;;5.80;3.90;;;;;;;4.02;92.75;98747.25;108731;1251;73863;-91
2023/02/21 05:18:48;;;;;;;5.70;4.00;;;;;;;4.03;92.29;98745.23;108644;1251;61948;-92
2023/02/21 05:21:18;;;;;;;5.40;3.70;;;;;;;4.04;92.24;98741.92;107829;1251;60505;-91
2023/02/21 05:23:55;;;;;;;6.30;4.30;;;;;;;4.04;92.35;98730.14;107796;1251;73006;-93
2023/02/21 05:26:26;;;;;;;3.20;2.80;;;;;;;4.04;92.65;98723.89;107550;1255;63694;-93
2023/02/21 05:28:54;;;;;;;9.10;4.10;;;;;;;4.08;92.54;98726.59;107386;1253;72593;-91
2023/02/21 05:31:21;;;;;;;5.80;3.40;;;;;;;4.11;92.29;98725.41;107811;1251;62637;-91
2023/02/21 05:33:51;;;;;;;6.60;4.10;;;;;;;4.13;92.33;98726.79;107844;1255;61370;-92
2023/02/21 05:36:18;;;;;;;5.00;3.30;;;;;;;4.14;92.11;98718.41;108134;1257;74573;-94
2023/02/21 05:38:54;;;;;;;6.70;3.80;;;;;;;4.16;92.00;98717.98;107536;1253;67078;-91
2023/02/21 05:41:23;;;;;;;3.60;3.10;;;;;;;4.18;91.70;98722.54;107940;1253;73560;-92
2023/02/21 05:43:55;;;;;;;5.30;3.00;;;;;;;4.21;91.73;98706.92;109508;1252;61012;-93
2023/02/21 05:46:30;;;;;;;3.90;3.50;;;;;;;4.25;91.41;98712.19;108846;1253;60660;-93
2023/02/21 05:49:02;;;;;;;3.70;3.10;;;;;;;4.30;91.65;98722.77;108060;1253;73030;-93
2023/02/21 05:51:49;;;;;;;7.00;3.90;;;;;;;4.36;91.27;98714.11;107804;1253;62430;-94
2023/02/21 05:54:21;;;;;;;6.60;4.30;;;;;;;4.43;91.32;98715.05;107729;1257;73816;-91
2023/02/21 05:56:50;;;;;;;4.80;3.90;;;;;;;4.48;91.01;98713.11;107725;1253;61493;-92
2023/02/21 05:59:19;;;;;;;6.50;4.00;;;;;;;4.58;90.93;98716.81;108739;1252;60379;-91
2023/02/21 06:02:00;;;;;;;6.20;4.30;;;;;;;4.68;90.94;98719.77;108750;1252;73170;-93
2023/02/21 06:04:30;;;;;;;8.00;4.90;;;;;;;4.79;90.60;98719.93;108075;1253;64274;-93
2023/02/21 06:07:01;;;;;;;10.10;5.10;;;;;;;4.86;90.14;98714.58;108195;1253;72621;-92
2023/02/21 06:09:37;;;;;;;7.40;5.50;;;;;;;4.91;89.81;98717.39;108207;1252;59513;-91
2023/02/21 06:12:11;;;;;;;6.10;4.90;;;;;;;4.96;89.48;98720.32;108247;1253;60192;-93
2023/02/21 06:14:51;;;;;;;7.70;4.90;;;;;;;5.08;89.26;98717.78;108418;1253;73701;-93
2023/02/21 06:17:45;;;;;;;8.80;4.40;;;;;;;5.36;89.32;98716.92;108564;1253;63223;-91
2023/02/21 06:21:22;;;;;;;6.50;4.30;;;;;;;5.98;87.97;98714.11;109108;1253;71517;-93
2023/02/21 06:24:13;;;;;;;5.70;3.90;;;;;;;6.28;86.32;98711.45;109272;1253;59369;-93
2023/02/21 06:27:18;;;;;;;5.40;3.10;;;;;;;6.50;85.19;98714.05;109216;1252;60411;-94
2023/02/21 06:30:16;;;;;;;5.90;3.60;;;;;;;6.72;83.93;98698.54;109196;1252;71556;-92
2023/02/21 06:33:12;;;;;;;4.10;2.70;;;;;;;6.82;81.82;98702.79;109418;1253;62371;-94
2023/02/21 06:36:40;;;;;;;3.40;2.00;;;;;;;6.90;80.89;98698.21;109746;1253;71366;-93
2023/02/21 06:39:42;;;;;;;4.20;2.60;;;;;;;7.52;80.27;98700.38;109666;1253;64947;-94
2023/02/21 06:42:41;;;;;;;4.30;2.00;;;;;;;8.53;78.20;98695.94;109623;1252;61344;-92
2023/02/21 06:45:45;;;;;;;12.70;2.40;;;;;;;9.29;74.35;98703.69;109096;1250;73894;-88
2023/02/21 06:57:48;;;;;;;5.90;1.90;;;;;;;8.63;68.88;98706.23;108488;1264;59309;-93
2023/02/21 07:03:26;;;;;;;6.10;2.00;;;;;;;7.99;69.59;98709.69;105791;1295;613172;-92
2023/02/21 07:06:55;;;;;;;5.10;2.10;;;;;;;7.63;70.46;98712.20;108469;1268;60070;-92
2023/02/21 07:09:54;;;;;;;7.90;2.40;;;;;;;7.44;71.17;98714.68;108669;1273;59281;-93
2023/02/21 07:12:58;;;;;;;6.40;2.20;;;;;;;7.36;72.11;98715.22;108240;1272;73086;-92
2023/02/21 07:16:44;;;;;;;6.20;2.30;;;;;;;7.29;72.54;98716.97;105131;1262;5004242;-95
2023/02/21 07:20:34;;;;;;;7.90;2.50;;;;;;;7.16;72.97;98719.87;108897;1263;74618;-92
2023/02/21 07:27:56;;;;;;;4.90;1.90;;;;;;;7.11;73.01;98714.65;105160;1267;977129;-94
2023/02/21 07:44:19;;;;;;;;;;;;;;;;;;;;;
2023/02/21 07:48:28;;;;;;;6.80;3.30;;;;;;;7.70;72.03;98751.01;108574;1267;72756;-94
2023/02/21 07:51:33;;;;;;;7.30;3.30;;;;;;;7.82;71.20;98752.16;108765;1267;63177;-93
2023/02/21 08:21:44;;;;;;;17.90;8.60;;;;;;;7.83;69.05;98757.08;84745;1295;71804;-92
2023/02/21 08:24:58;;;;;;;17.80;5.60;;;;;;;8.02;68.61;98761.29;108493;1261;61999;-93
2023/02/21 08:32:06;;;;;;;13.20;5.90;;;;;;;8.86;67.05;98758.08;98771;1263;971785;31
2023/02/21 08:35:54;;;;;;;15.20;5.50;;;;;;;9.05;65.36;98762.59;108073;1272;61980;-95
2023/02/21 08:39:10;;;;;;;20.00;5.40;;;;;;;9.08;65.48;98762.11;107393;1274;74173;-93
2023/02/21 08:42:04;;;;;;;12.80;5.50;;;;;;;9.11;65.55;98762.43;107013;1272;64162;-95
2023/02/21 08:49:41;;;;;;;10.20;6.30;;;;;;;9.05;65.27;98761.67;105696;1298;60757;31
2023/02/21 09:48:19;;;;;;;8.20;3.30;;;;;;;8.07;64.89;98780.53;107330;1280;65573;-94
2023/02/21 10:37:58;;;;;;;3.10;1.90;;;;;;;8.82;55.06;98774.92;109248;1257;66250;31
2023/02/21 10:41:10;;;;;;;6.40;1.30;;;;;;;8.62;55.44;98776.04;111685;1241;72288;-92
2023/02/21 10:44:30;;;;;;;5.60;2.00;;;;;;;8.52;55.96;98772.70;111904;1238;59908;-93
2023/02/21 10:58:17;;;;;;;6.60;3.30;;;;;;;8.44;56.68;98774.70;112372;1234;71243;-92
2023/02/21 11:13:45;;;;;;;7.80;3.20;;;;;;;8.47;56.67;98752.30;112481;1234;63786;-94
2023/02/21 11:42:42;;;;;;;3.30;1.70;;;;;;;8.87;54.34;98784.09;104444;1313;60565;-93
2023/02/21 11:46:54;;;;;;;5.60;2.40;;;;;;;8.57;56.02;98790.73;106273;1289;59610;-93
2023/02/21 11:50:04;;;;;;;8.10;2.70;;;;;;;8.25;58.68;98820.45;105848;1297;71501;-93
2023/02/21 11:53:51;;;;;;;10.70;5.00;;;;;;;7.88;61.95;98832.88;105987;1297;62678;-94
2023/02/21 11:57:53;;;;;;;16.80;7.00;;;;;;;7.36;65.14;98839.66;106044;1297;71398;-92
2023/02/21 12:05:33;;;;;;;14.30;6.70;;;;;;;6.92;68.83;98802.78;106778;1286;59642;-92
2023/02/21 12:09:37;;;;;;;15.10;6.60;;;;;;;6.97;71.14;98797.73;106675;1286;71096;-95
2023/02/21 12:25:38;;;;;;;19.20;13.60;;;;;;;7.97;72.09;98789.00;106385;1282;62216;-94
2023/02/21 12:29:35;;;;;;;23.70;17.90;;;;;;;8.05;71.62;98789.44;106856;1281;71781;-94
2023/02/21 12:36:54;;;;;;;34.70;20.80;;;;;;;8.26;71.63;98784.29;95066;1278;72684;-94
2023/02/21 12:46:08;;;;;;;29.60;17.30;;;;;;;8.27;70.40;98779.02;105836;1296;59921;-94
2023/02/21 12:50:20;;;;;;;38.10;21.80;;;;;;;8.21;69.33;98783.33;105658;1279;73032;31
2023/02/21 12:53:47;;;;;;;32.20;19.50;;;;;;;8.17;69.33;98784.47;106113;1284;63213;-95
2023/02/21 12:57:51;;;;;;;25.00;15.00;;;;;;;8.19;68.98;98779.44;106130;1290;71725;-95
2023/02/21 13:01:16;;;;;;;24.20;9.60;;;;;;;8.25;69.09;98780.55;106401;1290;60020;-93
2023/02/21 13:04:46;;;;;;;13.70;5.40;;;;;;;8.30;68.91;98773.73;106028;1292;60102;-94
2023/02/21 13:08:25;;;;;;;5.40;3.50;;;;;;;8.33;68.12;98770.05;106764;1281;71548;-94
2023/02/21 13:16:32;;;;;;;;;;;;;;;8.40;66.92;98770.83;105308;1292;71377;-94
2023/02/21 13:19:46;;;;;;;8.80;3.80;;;;;;;8.39;66.44;98778.01;105472;1293;59219;-94
2023/02/21 13:22:33;;;;;;;5.90;3.30;;;;;;;8.35;66.00;98775.60;105895;1291;61385;-92
2023/02/21 13:26:24;;;;;;;;;;;;;;;;;;;;;
2023/02/21 13:29:56;;;;;;;6.70;3.40;;;;;;;8.22;65.88;98780.13;106928;1276;63183;-93
2023/02/21 13:37:21;;;;;;;4.80;2.50;;;;;;;7.96;65.72;98778.56;106909;1284;59588;-94
2023/02/21 13:41:25;;;;;;;4.80;2.50;;;;;;;7.83;65.14;98792.36;106896;1282;59014;-94
2023/02/21 13:45:25;;;;;;;;;;;;;;;;;;;;;
2023/02/21 13:48:45;;;;;;;4.80;2.80;;;;;;;7.67;65.84;98792.71;107010;1277;63297;31
2023/02/21 14:08:50;;;;;;;8.00;4.40;;;;;;;7.22;67.84;98826.80;107069;1281;71834;-94
2023/02/21 14:12:11;;;;;;;6.20;4.20;;;;;;;7.06;68.12;98837.71;106663;1281;62959;-94
2023/02/21 14:16:15;;;;;;;9.70;3.50;;;;;;;6.90;68.77;98823.59;106929;1283;61490;-94
2023/02/21 14:24:10;;;;;;;5.70;2.80;;;;;;;6.66;70.89;98806.23;105996;1290;63262;-92
2023/02/21 14:27:43;;;;;;;13.90;6.50;;;;;;;6.65;71.49;98798.16;105976;1291;72845;-93
2023/02/21 14:42:23;;;;;;;19.00;7.80;;;;;;;6.97;70.54;98807.93;108820;1263;612231;-96
2023/02/21 14:46:06;;;;;;;8.60;4.60;;;;;;;7.00;69.90;98809.81;105503;1246;6710216;-96
2023/02/21 14:49:24;;;;;;;10.80;4.50;;;;;;;6.93;69.94;98817.46;110354;1246;60105;-94
2023/02/21 14:52:41;;;;;;;6.60;3.70;;;;;;;6.86;70.24;98817.44;111201;1234;71102;-95
2023/02/21 14:56:18;;;;;;;9.00;4.60;;;;;;;6.78;70.22;98833.35;111672;1237;63704;-94
2023/02/21 15:00:07;;;;;;;13.90;5.70;;;;;;;6.67;70.56;98849.57;111390;1238;71810;-94
2023/02/21 15:03:51;;;;;;;11.70;6.00;;;;;;;6.57;70.81;98865.59;110633;1242;59763;-94
2023/02/21 15:06:29;;;;;;;10.30;5.00;;;;;;;6.53;71.11;98876.46;111110;1233;59939;-95
2023/02/21 15:09:35;;;;;;;7.30;3.90;;;;;;;6.46;71.66;98888.95;111448;1237;70561;-95
2023/02/21 15:12:20;;;;;;;6.00;3.10;;;;;;;6.36;72.47;98889.83;111371;1237;64286;-94
2023/02/21 15:15:41;;;;;;;10.50;4.80;;;;;;;6.23;73.12;98898.00;112091;1237;74087;-95
2023/02/21 15:19:35;;;;;;;;;;;;;;;;;;;;;
2023/02/21 15:22:42;;;;;;;3.40;2.30;;;;;;;5.95;74.69;98905.29;111043;1244;58907;-95
2023/02/21 15:25:36;;;;;;;4.80;1.90;;;;;;;5.84;74.86;98915.09;110737;1247;73085;-94
2023/02/21 15:28:38;;;;;;;2.70;2.00;;;;;;;5.76;75.37;98917.55;110644;1247;63083;-95
2023/02/21 15:31:27;;;;;;;3.60;1.80;;;;;;;5.67;75.59;98915.50;110419;1248;72692;-95
2023/02/21 15:34:47;;;;;;;3.70;2.20;;;;;;;5.58;76.04;98914.36;110454;1250;61708;-93
2023/02/21 15:37:59;;;;;;;7.80;3.50;;;;;;;5.52;76.36;98910.77;109502;1253;59582;-95
2023/02/21 15:40:45;;;;;;;10.30;6.10;;;;;;;5.51;76.89;98908.23;109490;1253;73795;-93
2023/02/21 15:43:50;;;;;;;21.60;12.40;;;;;;;5.53;77.01;98914.86;109719;1252;63258;-93
2023/02/21 15:46:40;;;;;;;34.20;20.80;;;;;;;5.55;77.13;98910.08;109547;1251;71316;-96
2023/02/21 15:50:31;;;;;;;41.70;26.00;;;;;;;5.55;77.12;98909.91;110869;1244;58928;-93
2023/02/21 15:53:23;;;;;;;38.50;22.60;;;;;;;5.56;76.98;98914.84;110136;1244;59226;-94
2023/02/21 16:04:42;;;;;;;31.40;17.00;;;;;;;5.37;77.23;98942.09;111948;1234;71320;-92
2023/02/21 16:16:14;;;;;;;25.00;14.60;;;;;;;5.20;77.38;98973.53;111666;1233;977166;-95
2023/02/21 16:31:40;;;;;;;17.30;9.40;;;;;;;5.13;77.44;98996.53;111790;1239;59192;-96
2023/02/21 16:34:53;;;;;;;22.20;12.30;;;;;;;5.13;77.41;99011.73;109951;1246;72637;-95
2023/02/21 16:38:38;;;;;;;22.30;12.60;;;;;;;5.10;77.21;99020.05;111888;1235;63134;-94
2023/02/21 16:48:38;;;;;;;27.00;17.40;;;;;;;4.89;77.31;99037.67;111887;1237;58778;-96
2023/02/21 16:51:40;;;;;;;27.10;15.80;;;;;;;4.76;77.66;99038.27;111677;1238;74817;-95
2023/02/21 17:54:28;;;;;;;4.50;2.20;;;;;;;4.64;79.67;99098.77;111562;1237;60237;-96
2023/02/21 17:57:37;;;;;;;4.10;2.30;;;;;;;4.61;79.56;99103.63;110964;1241;60204;-93
2023/02/21 18:09:32;;;;;;;9.40;3.50;;;;;;;4.62;79.85;99117.76;111621;1239;73555;-96
2023/02/21 18:20:20;;;;;;;10.60;5.70;;;;;;;4.73;79.58;99127.44;111970;1234;73448;-94
2023/02/21 18:27:26;;;;;;;10.30;5.70;;;;;;;4.78;78.88;99124.88;112209;1239;71587;-91
2023/02/21 18:34:07;;;;;;;13.00;7.10;;;;;;;4.78;78.52;99125.24;111794;1236;59151;-94
2023/02/21 18:45:26;;;;;;;12.40;6.60;;;;;;;4.76;78.34;99132.11;111642;1235;73968;-96
2023/02/21 18:50:01;;;;;;;7.50;5.20;;;;;;;4.74;77.87;99137.05;111970;1239;60098;31
2023/02/21 19:13:29;;;;;;;5.80;2.50;;;;;;;4.33;78.30;99148.63;111655;1232;71800;31
2023/02/21 19:38:25;;;;;;;10.10;4.40;;;;;;;4.50;78.22;99160.14;111449;1241;72088;-95
2023/02/21 19:56:16;;;;;;;4.90;2.30;;;;;;;4.57;78.17;99131.37;111684;1234;973110;-95
2023/02/21 20:05:57;;;;;;;5.60;2.60;;;;;;;4.48;77.80;99138.98;111703;1234;71652;-94
2023/02/21 20:09:09;;;;;;;6.80;2.60;;;;;;;4.45;77.82;99150.40;111478;1234;61521;-96
2023/02/21 20:20:53;;;;;;;3.10;1.80;;;;;;;4.30;78.64;99170.85;112111;1234;58901;-95
2023/02/21 20:42:27;;;;;;;;;;;;;;;;;;;;;
2023/02/21 21:11:59;;;;;;;10.80;5.40;;;;;;;4.11;79.41;99220.98;112112;1235;59060;-95
2023/02/21 21:15:25;;;;;;;7.10;3.70;;;;;;;4.07;79.41;99223.67;112145;1234;74645;-95
2023/02/21 21:55:15;;;;;;;0.90;0.60;;;;;;;3.69;77.59;99294.52;111587;1240;63512;-91
2023/02/21 22:00:01;;;;;;;1.20;0.70;;;;;;;3.71;77.17;99303.92;112303;1234;71605;-96
2023/02/21 22:09:25;;;;;;;1.50;1.00;;;;;;;3.68;76.91;99328.61;111951;1234;60238;-94
2023/02/21 22:22:06;;;;;;;;;;;;;;;;;;;;;
2023/02/21 22:26:23;;;;;;;1.10;0.60;;;;;;;3.68;75.32;99382.02;108623;1273;60351;-95
2023/02/21 22:42:31;;;;;;;1.90;1.10;;;;;;;3.97;73.71;99392.59;106975;1284;611647;-95
2023/02/21 22:47:25;;;;;;;2.90;0.50;;;;;;;3.94;72.37;99394.34;99666;1283;60441;-94
2023/02/21 22:52:18;;;;;;;0.60;0.60;;;;;;;3.83;72.12;99397.31;107286;1283;63582;-95
2023/02/21 22:55:57;;;;;;;0.80;0.50;;;;;;;3.75;72.39;99397.39;108273;1272;71733;-94
2023/02/21 22:58:56;;;;;;;1.10;0.60;;;;;;;3.77;72.62;99400.05;107825;1276;60248;-94
2023/02/21 23:02:32;;;;;;;2.50;1.00;;;;;;;3.81;73.02;99404.67;108040;1263;59307;-92
2023/02/21 23:06:56;;;;;;;2.30;0.70;;;;;;;3.87;73.07;99409.91;108180;1269;72738;-96
2023/02/21 23:10:39;;;;;;;1.10;0.60;;;;;;;3.86;72.88;99413.08;108226;1276;62917;-93
2023/02/21 23:14:41;;;;;;;;;;;;;;;;;;;;;
2023/02/21 23:19:02;;;;;;;0.70;0.60;;;;;;;3.67;73.07;99423.39;109135;1258;60462;-95
2023/02/21 23:22:43;;;;;;;0.70;0.70;;;;;;;3.56;72.99;99416.67;108060;1263;61581;-94
2023/02/21 23:26:07;;;;;;;1.20;0.70;;;;;;;3.53;73.02;99422.88;107967;1267;73608;-96
2023/02/21 23:29:00;;;;;;;2.00;0.70;;;;;;;3.50;72.66;99432.89;108039;1267;65644;-95
2023/02/21 23:38:29;;;;;;;3.10;1.40;;;;;;;3.38;72.87;99435.02;108627;1269;60397;-95
2023/02/21 23:53:25;;;;;;;;;;;;;;;;;;;;;
2023/02/21 23:57:06;;;;;;;1.60;1.00;;;;;;;3.37;73.52;99454.60;107629;1273;59762;-92
